Time;durP1;ratioP1;P1;durP2;ratioP2;P2;SDS_P1;SDS_P2;PMS_P1;PMS_P2;Temp;Humidity;BMP_temperature;BMP_pressure;BME280_temperature;BME280_humidity;BME280_pressure;Samples;Min_cycle;Max_cycle;Signal;HPM_P1;HPM_P2
2021/12/10 00:00:49;;;;;;;50.47;24.55;;;4.50;99.90;;;;;;5074466;28;20079;-94
2021/12/10 00:03:19;;;;;;;58.38;25.85;;;4.40;99.90;;;;;;5074522;28;20053;-94
2021/12/10 00:05:50;;;;;;;48.60;24.15;;;4.70;99.90;;;;;;5057696;28;20494;-94
2021/12/10 00:08:17;;;;;;;50.58;24.88;;;4.90;99.90;;;;;;5057392;28;20444;-94
2021/12/10 00:10:45;;;;;;;48.13;24.38;;;5.00;99.90;;;;;;5074307;28;20060;-94
2021/12/10 00:13:12;;;;;;;48.80;23.38;;;4.70;99.90;;;;;;5074502;28;20048;-94
2021/12/10 00:15:40;;;;;;;54.03;24.13;;;4.60;99.90;;;;;;5057590;28;20101;-94
2021/12/10 00:18:09;;;;;;;50.45;23.50;;;4.40;99.90;;;;;;5057507;28;20044;-95
2021/12/10 00:52:14;;;;;;;32.53;16.63;;;4.50;99.90;;;;;;5072860;28;20059;-94
2021/12/10 00:54:43;;;;;;;34.38;17.42;;;4.50;99.90;;;;;;5073684;28;20401;-93
2021/12/10 00:57:10;;;;;;;32.70;17.27;;;4.50;99.90;;;;;;5057189;28;20421;-93
2021/12/10 00:59:39;;;;;;;35.05;13.88;;;4.50;99.90;;;;;;5056770;28;20437;-94
2021/12/10 01:02:10;;;;;;;40.95;16.55;;;4.50;99.90;;;;;;5073129;28;20047;-94
2021/12/10 01:04:42;;;;;;;29.23;14.82;;;4.40;99.90;;;;;;5056883;28;20135;-93
2021/12/10 01:07:16;;;;;;;29.98;14.88;;;4.60;99.90;;;;;;5073301;28;20436;-93
2021/12/10 01:09:48;;;;;;;32.85;15.77;;;4.40;99.90;;;;;;5073315;28;20044;-94
2021/12/10 01:12:21;;;;;;;33.08;15.50;;;4.40;99.90;;;;;;5073351;28;20047;-94
2021/12/10 01:25:51;;;;;;;33.03;14.13;;;4.20;99.90;;;;;;5073121;28;20056;-93
2021/12/10 01:28:17;;;;;;;33.17;13.60;;;4.30;99.90;;;;;;5073459;28;20076;-94
2021/12/10 01:30:42;;;;;;;30.17;13.55;;;4.30;99.90;;;;;;5056666;28;20406;-93
2021/12/10 01:33:13;;;;;;;26.20;14.07;;;4.30;99.90;;;;;;5073074;28;20074;-94
2021/12/10 01:35:42;;;;;;;29.70;13.90;;;4.30;99.90;;;;;;5056332;28;20059;-95
2021/12/10 01:38:10;;;;;;;27.42;14.73;;;4.30;99.90;;;;;;5060297;28;20148;-94
2021/12/10 01:40:40;;;;;;;29.80;14.27;;;4.40;99.90;;;;;;5060433;28;20045;-94
2021/12/10 01:43:10;;;;;;;24.60;13.15;;;4.30;99.90;;;;;;5060553;28;20048;-94
2021/12/10 01:45:47;;;;;;;28.20;13.30;;;4.30;99.90;;;;;;5060395;28;20051;-94
2021/12/10 01:48:24;;;;;;;38.97;14.52;;;4.30;99.90;;;;;;5076883;28;20048;-95
2021/12/10 01:50:50;;;;;;;30.73;15.35;;;4.30;99.90;;;;;;5076693;28;20045;-94
2021/12/10 01:53:20;;;;;;;30.35;14.75;;;4.30;99.90;;;;;;5060024;28;20131;-93
2021/12/10 01:55:49;;;;;;;29.25;15.30;;;4.30;99.90;;;;;;5060196;28;20054;-94
2021/12/10 01:58:20;;;;;;;32.70;15.23;;;4.30;99.90;;;;;;5076615;28;20406;-94
2021/12/10 02:00:53;;;;;;;33.60;15.80;;;4.30;99.90;;;;;;5060020;28;20045;-94
2021/12/10 02:03:19;;;;;;;24.17;15.13;;;4.30;99.90;;;;;;5077020;28;20338;-95
2021/12/10 02:05:46;;;;;;;27.65;15.85;;;4.30;99.90;;;;;;5076899;28;20494;-94
2021/12/10 02:08:11;;;;;;;31.00;15.43;;;4.30;99.90;;;;;;5060049;28;20046;-94
2021/12/10 02:10:37;;;;;;;26.60;15.25;;;4.30;99.90;;;;;;5059941;28;20474;-94
2021/12/10 02:13:03;;;;;;;29.95;13.30;;;4.30;99.90;;;;;;5076420;28;20052;-95
2021/12/10 02:15:29;;;;;;;30.90;14.20;;;4.30;99.90;;;;;;5076430;28;20132;-94
2021/12/10 02:17:58;;;;;;;26.98;13.48;;;4.30;99.90;;;;;;5076514;28;20083;-94
2021/12/10 02:20:32;;;;;;;28.25;14.07;;;4.30;99.90;;;;;;5059818;28;20087;-94
2021/12/10 02:22:59;;;;;;;26.85;13.77;;;4.30;99.90;;;;;;5076400;28;20091;-94
2021/12/10 02:25:28;;;;;;;29.63;13.07;;;4.50;99.90;;;;;;5059730;28;20045;-94
2021/12/10 02:27:54;;;;;;;30.92;13.13;;;4.30;99.90;;;;;;5076322;28;20055;-94
2021/12/10 02:30:23;;;;;;;33.33;14.40;;;4.30;99.90;;;;;;5059085;28;20470;-93
2021/12/10 02:32:49;;;;;;;27.10;13.23;;;4.60;99.90;;;;;;5076196;28;20048;-94
2021/12/10 02:35:15;;;;;;;27.25;13.10;;;4.30;99.90;;;;;;5059887;28;20055;-94
2021/12/10 02:37:43;;;;;;;31.83;12.32;;;4.30;99.90;;;;;;5059428;28;20079;-93
2021/12/10 02:40:10;;;;;;;24.13;13.30;;;4.60;99.90;;;;;;5059289;28;20529;-94
2021/12/10 02:42:37;;;;;;;20.88;12.30;;;4.30;99.90;;;;;;5075969;28;20059;-94
2021/12/10 02:45:05;;;;;;;26.05;12.35;;;4.30;99.90;;;;;;5059059;28;20052;-93
2021/12/10 02:47:31;;;;;;;26.83;13.10;;;4.80;99.90;;;;;;5060165;28;20049;-91
2021/12/10 02:49:57;;;;;;;28.98;12.30;;;4.90;99.90;;;;;;5075879;28;20086;-92
2021/12/10 02:52:25;;;;;;;28.92;12.90;;;4.30;99.90;;;;;;5059216;28;20052;-94
2021/12/10 02:54:51;;;;;;;25.27;12.48;;;4.40;99.90;;;;;;5075638;28;20056;-92
2021/12/10 02:57:18;;;;;;;23.20;12.38;;;4.20;99.90;;;;;;5076061;28;20093;-93
2021/12/10 02:59:46;;;;;;;32.05;13.80;;;4.40;99.90;;;;;;5075457;28;20087;-93
2021/12/10 03:02:15;;;;;;;25.10;13.30;;;4.20;99.90;;;;;;5058844;28;20098;-94
2021/12/10 03:04:43;;;;;;;24.38;12.75;;;4.40;99.90;;;;;;5075475;28;20048;-93
2021/12/10 03:07:13;;;;;;;25.88;12.52;;;4.10;99.90;;;;;;5075629;28;20429;-92
2021/12/10 03:09:44;;;;;;;26.05;12.90;;;4.10;99.90;;;;;;5075311;28;20135;-94
2021/12/10 03:12:11;;;;;;;30.67;12.93;;;4.10;99.90;;;;;;5075381;28;20071;-94
2021/12/10 03:14:40;;;;;;;30.08;13.20;;;4.10;99.90;;;;;;5075562;28;20063;-94
2021/12/10 03:17:17;;;;;;;28.35;14.73;;;4.10;99.90;;;;;;5075523;28;20095;-93
2021/12/10 03:19:43;;;;;;;22.98;11.32;;;4.10;99.90;;;;;;5075303;28;20102;-93
2021/12/10 03:22:09;;;;;;;21.48;11.95;;;4.10;99.90;;;;;;5058335;28;20113;-93
2021/12/10 03:24:35;;;;;;;27.80;13.13;;;4.00;99.90;;;;;;5058425;28;20067;-94
2021/12/10 03:27:06;;;;;;;22.27;12.18;;;4.00;99.90;;;;;;5058353;28;20604;-93
2021/12/10 03:29:35;;;;;;;23.88;12.05;;;4.00;99.90;;;;;;5075151;28;20040;-93
2021/12/10 03:32:07;;;;;;;22.58;11.82;;;4.30;99.90;;;;;;5074974;28;20131;-93
2021/12/10 03:34:33;;;;;;;;;;;3.90;99.90;;;;;;5058770;28;20064;-93
2021/12/10 03:37:00;;;;;;;21.25;12.10;;;3.80;99.90;;;;;;5058148;28;20062;-94
2021/12/10 03:39:26;;;;;;;24.75;12.75;;;3.80;99.90;;;;;;5075013;28;20110;-94
2021/12/10 03:41:55;;;;;;;22.88;11.55;;;3.80;99.90;;;;;;5074837;28;20474;-92
2021/12/10 03:44:21;;;;;;;23.15;11.80;;;3.80;99.90;;;;;;5058470;28;20449;-94
2021/12/10 03:46:48;;;;;;;23.73;12.95;;;3.70;99.90;;;;;;5074995;28;20154;-93
2021/12/10 03:49:15;;;;;;;26.23;12.60;;;4.00;99.90;;;;;;5058258;28;20545;-94
2021/12/10 03:51:41;;;;;;;26.08;13.05;;;3.60;99.90;;;;;;5058011;28;20495;-94
2021/12/10 03:54:10;;;;;;;26.10;13.57;;;3.60;99.90;;;;;;5074748;28;20122;-93
2021/12/10 03:56:37;;;;;;;25.58;13.18;;;3.50;99.90;;;;;;5074755;28;20118;-94
2021/12/10 03:59:10;;;;;;;29.65;14.35;;;3.50;99.90;;;;;;5057981;28;20051;-94
2021/12/10 04:01:41;;;;;;;26.60;14.00;;;3.40;99.90;;;;;;5073598;28;20075;-93
2021/12/10 04:04:12;;;;;;;29.42;13.70;;;3.30;99.90;;;;;;5057797;28;20044;-93
2021/12/10 04:06:40;;;;;;;33.67;15.63;;;3.30;99.90;;;;;;5057624;28;20052;-93
2021/12/10 04:09:06;;;;;;;30.27;15.98;;;3.20;99.90;;;;;;5074303;28;20052;-92
2021/12/10 04:11:32;;;;;;;28.63;15.50;;;3.10;99.90;;;;;;5074405;28;20059;-93
2021/12/10 04:13:58;;;;;;;31.02;15.85;;;3.00;99.90;;;;;;5074983;28;20063;-93
2021/12/10 04:16:27;;;;;;;41.95;17.83;;;2.90;99.90;;;;;;5057682;28;20059;-93
2021/12/10 04:18:55;;;;;;;40.25;18.48;;;2.80;99.90;;;;;;5057841;28;20509;-92
2021/12/10 04:21:21;;;;;;;37.55;18.88;;;2.80;99.90;;;;;;5073713;28;20040;-93
2021/12/10 04:23:48;;;;;;;36.30;18.60;;;2.70;99.90;;;;;;5057368;28;20402;-93
2021/12/10 04:26:17;;;;;;;41.20;17.90;;;2.70;99.90;;;;;;5074295;28;20450;-94
2021/12/10 04:28:44;;;;;;;44.53;19.98;;;3.10;99.90;;;;;;5057851;28;20044;-94
2021/12/10 04:31:10;;;;;;;38.92;18.65;;;2.60;99.90;;;;;;5074082;28;20501;-94
2021/12/10 04:33:36;;;;;;;49.97;18.65;;;2.60;99.90;;;;;;5073902;28;20559;-93
2021/12/10 04:36:04;;;;;;;45.92;19.48;;;2.50;99.90;;;;;;5058260;28;20143;-93
2021/12/10 04:38:33;;;;;;;43.50;19.15;;;2.50;99.90;;;;;;5062396;28;20044;-93
2021/12/10 04:41:01;;;;;;;42.35;19.45;;;2.50;99.90;;;;;;5059426;28;20044;-93
2021/12/10 04:43:30;;;;;;;39.05;19.02;;;2.40;99.90;;;;;;5060343;28;20052;-93
2021/12/10 04:45:57;;;;;;;36.40;18.15;;;2.30;99.90;;;;;;5078170;28;20049;-93
2021/12/10 04:48:25;;;;;;;43.80;18.60;;;2.30;99.90;;;;;;5077234;28;20044;-93
2021/12/10 04:50:51;;;;;;;37.17;18.23;;;2.50;99.90;;;;;;5076590;28;20045;-92
2021/12/10 04:53:16;;;;;;;40.00;18.73;;;2.20;99.90;;;;;;5078569;28;20055;-92
2021/12/10 04:55:43;;;;;;;37.35;18.42;;;2.20;99.90;;;;;;5078973;28;20040;-92
2021/12/10 04:58:10;;;;;;;35.75;17.90;;;2.20;99.90;;;;;;5060422;28;20182;-93
2021/12/10 05:00:43;;;;;;;36.45;17.88;;;2.20;99.90;;;;;;5074128;28;20044;-94
2021/12/10 05:03:09;;;;;;;36.53;18.17;;;2.20;99.90;;;;;;5056659;28;20053;-93
2021/12/10 05:05:36;;;;;;;38.45;16.83;;;2.20;99.90;;;;;;5056307;28;20493;-93
2021/12/10 05:08:03;;;;;;;38.67;18.52;;;2.10;99.90;;;;;;5073294;28;20048;-92
2021/12/10 05:10:29;;;;;;;42.63;18.73;;;2.20;99.90;;;;;;5056677;28;20052;-93
2021/12/10 05:12:55;;;;;;;37.95;17.73;;;2.10;99.90;;;;;;5073143;28;20397;-93
2021/12/10 05:15:24;;;;;;;39.40;18.77;;;2.10;99.90;;;;;;5056484;28;20048;-93
2021/12/10 05:17:52;;;;;;;36.90;16.90;;;2.10;99.90;;;;;;5073354;28;20051;-94
2021/12/10 05:20:30;;;;;;;33.97;17.42;;;2.10;99.90;;;;;;5056525;28;20131;-91
2021/12/10 05:22:56;;;;;;;35.38;18.00;;;2.10;99.90;;;;;;5072995;28;20044;-94
2021/12/10 05:25:26;;;;;;;41.58;18.05;;;2.10;99.90;;;;;;5072693;28;20044;-93
2021/12/10 05:27:52;;;;;;;35.83;18.08;;;2.10;99.90;;;;;;5073277;28;20040;-93
2021/12/10 05:30:20;;;;;;;35.42;16.77;;;2.10;99.90;;;;;;5072901;28;20052;-92
2021/12/10 05:32:46;;;;;;;35.30;16.90;;;2.50;99.90;;;;;;5072782;28;20129;-94
2021/12/10 05:35:12;;;;;;;37.83;17.13;;;2.00;99.90;;;;;;5072947;28;20049;-93
2021/12/10 05:37:41;;;;;;;37.45;17.65;;;2.00;99.90;;;;;;5073001;28;20113;-93
2021/12/10 05:40:12;;;;;;;34.70;17.38;;;1.90;99.90;;;;;;5056346;28;20405;-93
2021/12/10 05:42:40;;;;;;;33.90;17.00;;;1.90;99.90;;;;;;5073273;28;20056;-94
2021/12/10 05:45:06;;;;;;;34.25;17.35;;;1.90;99.90;;;;;;5056174;28;20052;-93
2021/12/10 05:47:32;;;;;;;34.15;16.45;;;1.80;99.90;;;;;;5056505;28;20371;-94
2021/12/10 05:49:58;;;;;;;34.95;17.27;;;1.80;99.90;;;;;;5056432;28;20048;-93
2021/12/10 05:52:24;;;;;;;36.45;17.73;;;1.80;99.90;;;;;;5072514;28;20044;-93
2021/12/10 05:54:52;;;;;;;36.42;17.13;;;1.80;99.90;;;;;;5056087;28;20094;-93
2021/12/10 05:57:18;;;;;;;31.65;16.38;;;1.90;99.90;;;;;;5072875;28;20048;-94
2021/12/10 05:59:44;;;;;;;37.58;17.73;;;1.60;99.90;;;;;;5056034;28;20060;-92
2021/12/10 06:02:10;;;;;;;35.78;15.77;;;1.60;99.90;;;;;;5072404;28;20049;-93
2021/12/10 06:04:38;;;;;;;37.95;16.98;;;1.60;99.90;;;;;;5072901;28;20076;-92
2021/12/10 06:07:05;;;;;;;34.50;17.00;;;1.60;99.90;;;;;;5056222;28;20043;-93
2021/12/10 06:09:32;;;;;;;35.42;17.35;;;1.60;99.90;;;;;;5072813;28;20399;-93
2021/12/10 06:11:58;;;;;;;32.20;16.38;;;1.60;99.90;;;;;;5056044;28;20047;-93
2021/12/10 06:14:24;;;;;;;34.90;16.23;;;1.50;99.90;;;;;;5056052;28;20049;-93
2021/12/10 06:16:52;;;;;;;30.75;15.77;;;2.20;99.90;;;;;;5055776;28;20118;-93
2021/12/10 06:19:19;;;;;;;28.70;15.68;;;1.50;99.90;;;;;;5071683;28;20040;-93
2021/12/10 06:21:44;;;;;;;30.30;16.38;;;1.40;99.90;;;;;;5071812;28;20110;-93
2021/12/10 06:24:10;;;;;;;28.30;14.27;;;2.00;99.90;;;;;;5091409;28;20044;-94
2021/12/10 06:26:37;;;;;;;29.90;15.10;;;1.40;99.90;;;;;;5059618;28;20102;-93
2021/12/10 06:29:04;;;;;;;29.13;15.00;;;1.40;99.90;;;;;;5059612;28;20375;-93
2021/12/10 06:31:30;;;;;;;30.88;14.45;;;1.40;99.90;;;;;;5060002;28;20088;-93
2021/12/10 06:33:57;;;;;;;24.98;13.32;;;1.40;99.90;;;;;;5075917;28;20041;-93
2021/12/10 06:36:23;;;;;;;27.58;13.98;;;1.40;99.90;;;;;;5059553;28;20048;-93
2021/12/10 06:38:49;;;;;;;27.88;14.02;;;1.30;99.90;;;;;;5076636;28;20135;-93
2021/12/10 06:41:15;;;;;;;28.38;12.95;;;1.60;99.90;;;;;;5059113;28;20040;-93
2021/12/10 06:43:42;;;;;;;24.90;12.63;;;1.30;99.90;;;;;;5076116;28;20036;-93
2021/12/10 06:46:08;;;;;;;31.67;13.23;;;1.30;99.90;;;;;;5075862;28;20048;-94
2021/12/10 06:48:35;;;;;;;24.90;12.93;;;1.20;99.90;;;;;;5075555;28;20102;-94
2021/12/10 06:51:05;;;;;;;31.95;12.57;;;1.20;99.90;;;;;;5075870;28;20106;-93
2021/12/10 06:53:31;;;;;;;23.55;12.57;;;1.80;99.90;;;;;;5075898;28;20047;-93
2021/12/10 06:55:58;;;;;;;26.05;12.50;;;1.20;99.90;;;;;;5059338;28;20060;-94
2021/12/10 06:58:24;;;;;;;23.95;12.85;;;1.20;99.90;;;;;;5075861;28;20040;-93
2021/12/10 07:00:57;;;;;;;26.23;11.43;;;1.10;99.90;;;;;;5075581;28;20159;-94
2021/12/10 07:03:26;;;;;;;25.27;12.68;;;1.10;99.90;;;;;;5059337;28;20517;-93
2021/12/10 07:05:54;;;;;;;23.55;10.98;;;1.10;99.90;;;;;;5059147;28;20079;-94
2021/12/10 07:08:22;;;;;;;25.60;11.25;;;1.10;99.90;;;;;;5058904;28;20135;-93
2021/12/10 07:10:48;;;;;;;21.75;11.40;;;1.10;99.90;;;;;;5075366;28;20104;-94
2021/12/10 07:13:15;;;;;;;23.13;10.73;;;1.30;99.90;;;;;;5075396;28;20059;-94
2021/12/10 07:15:44;;;;;;;22.27;10.77;;;1.10;99.90;;;;;;5058599;28;20045;-94
2021/12/10 07:18:10;;;;;;;19.02;11.15;;;1.80;99.90;;;;;;5075476;28;20048;-94
2021/12/10 07:20:37;;;;;;;23.60;10.63;;;1.10;99.90;;;;;;5074961;28;20032;-94
2021/12/10 07:23:03;;;;;;;26.35;10.82;;;1.10;99.90;;;;;;5075067;28;20051;-94
2021/12/10 07:25:29;;;;;;;24.65;10.65;;;1.10;99.90;;;;;;5058881;28;20057;-94
2021/12/10 07:27:55;;;;;;;23.95;9.95;;;1.10;99.90;;;;;;5075333;28;20397;-95
2021/12/10 07:30:23;;;;;;;22.95;11.05;;;1.10;99.90;;;;;;5075298;28;20098;-95
2021/12/10 07:32:49;;;;;;;20.10;10.55;;;1.10;99.90;;;;;;5074806;28;20048;-94
2021/12/10 07:35:15;;;;;;;23.63;10.90;;;1.10;99.90;;;;;;5057870;28;20048;-93
2021/12/10 07:37:40;;;;;;;27.45;10.85;;;1.10;99.90;;;;;;5058304;28;20040;-96
2021/12/10 07:40:11;;;;;;;20.80;10.52;;;1.10;99.90;;;;;;5074909;28;20478;-95
2021/12/10 07:42:36;;;;;;;16.25;9.88;;;1.10;99.90;;;;;;5074927;28;20044;-94
2021/12/10 07:45:04;;;;;;;23.95;10.45;;;1.20;99.90;;;;;;5074919;28;20513;-93
2021/12/10 07:47:34;;;;;;;22.88;10.27;;;1.10;99.90;;;;;;5075119;28;20044;-94
2021/12/10 07:50:00;;;;;;;19.70;9.88;;;1.10;99.90;;;;;;5058599;28;20052;-93
2021/12/10 07:52:28;;;;;;;18.35;9.60;;;1.20;99.90;;;;;;5074608;28;20133;-94
2021/12/10 07:54:54;;;;;;;19.05;10.20;;;1.20;99.90;;;;;;5075141;28;20402;-94
2021/12/10 07:57:21;;;;;;;19.73;9.20;;;1.20;99.90;;;;;;5074635;28;20051;-93
2021/12/10 07:59:49;;;;;;;19.98;9.90;;;1.20;99.90;;;;;;5058429;28;20409;-94
2021/12/10 08:02:16;;;;;;;24.73;9.95;;;1.20;99.90;;;;;;5057345;28;20080;-93
2021/12/10 08:04:41;;;;;;;20.90;10.20;;;1.20;99.90;;;;;;5057963;28;20052;-95
2021/12/10 08:07:07;;;;;;;25.08;10.20;;;1.20;99.90;;;;;;5057953;28;20040;-93
2021/12/10 08:09:33;;;;;;;20.20;10.05;;;1.80;99.90;;;;;;5058424;28;20049;-93
2021/12/10 08:12:00;;;;;;;20.10;8.98;;;1.20;99.90;;;;;;5075029;28;20084;-94
2021/12/10 08:14:25;;;;;;;21.23;10.18;;;1.30;99.90;;;;;;5075526;28;20133;-94
2021/12/10 08:16:51;;;;;;;19.48;9.23;;;1.70;99.90;;;;;;5058731;28;20092;-94
2021/12/10 08:19:17;;;;;;;21.55;9.75;;;1.40;99.90;;;;;;5058789;28;20044;-94
2021/12/10 08:21:43;;;;;;;18.02;8.43;;;1.50;99.90;;;;;;5074638;28;20047;-94
2021/12/10 08:24:09;;;;;;;18.73;9.15;;;1.50;99.90;;;;;;5074658;28;20052;-94
2021/12/10 08:26:37;;;;;;;20.85;9.38;;;1.80;99.90;;;;;;5074997;28;20044;-93
2021/12/10 08:29:08;;;;;;;20.88;9.75;;;1.40;99.90;;;;;;5057563;28;20486;-93
2021/12/10 08:31:34;;;;;;;22.55;9.40;;;1.50;99.90;;;;;;5057816;28;20490;-93
2021/12/10 08:34:00;;;;;;;14.68;8.77;;;1.80;99.90;;;;;;5057911;28;20052;-94
2021/12/10 08:36:28;;;;;;;16.98;9.05;;;1.40;99.90;;;;;;5074403;28;20139;-93
2021/12/10 08:38:54;;;;;;;16.08;8.82;;;1.50;99.90;;;;;;5074787;28;20044;-94
2021/12/10 08:41:24;;;;;;;20.92;8.60;;;1.80;99.90;;;;;;5057932;28;20430;-94
2021/12/10 08:43:51;;;;;;;14.50;7.97;;;1.60;99.90;;;;;;5090764;28;20055;-94
2021/12/10 08:46:17;;;;;;;21.02;8.43;;;2.10;99.90;;;;;;5073719;28;20426;-92
2021/12/10 08:48:48;;;;;;;18.55;8.95;;;1.70;99.90;;;;;;5074574;28;20063;-93
2021/12/10 08:51:30;;;;;;;13.50;8.98;;;1.70;99.90;;;;;;5073972;28;20057;-94
2021/12/10 08:53:57;;;;;;;14.48;8.05;;;1.90;99.90;;;;;;5073929;28;20062;-94
2021/12/10 08:56:23;;;;;;;13.27;7.80;;;2.30;99.90;;;;;;5057151;28;20040;-93
2021/12/10 08:58:49;;;;;;;14.63;7.78;;;2.10;99.90;;;;;;5056966;28;20043;-93
2021/12/10 09:01:20;;;;;;;11.63;6.95;;;2.40;99.90;;;;;;5073848;28;20127;-93
2021/12/10 09:03:49;;;;;;;13.73;6.40;;;2.40;99.90;;;;;;5057504;28;20101;-94
2021/12/10 09:06:17;;;;;;;9.00;5.68;;;3.20;99.90;;;;;;5073959;28;20051;-95
2021/12/10 09:08:43;;;;;;;13.05;5.75;;;3.90;99.90;;;;;;5073887;28;20515;-93
2021/12/10 09:11:10;;;;;;;11.18;5.15;;;4.80;99.90;;;;;;5074119;28;20147;-94
2021/12/10 09:13:37;;;;;;;11.55;5.00;;;5.30;99.90;;;;;;5057444;28;20049;-93
2021/12/10 09:16:08;;;;;;;9.82;4.80;;;5.70;99.90;;;;;;5074392;28;20044;-93
2021/12/10 09:18:38;;;;;;;10.47;5.27;;;6.50;99.90;;;;;;5058910;28;20051;-94
2021/12/10 09:21:06;;;;;;;8.00;4.33;;;6.60;99.90;;;;;;5087356;28;20024;-91
2021/12/10 09:23:32;;;;;;;9.75;4.93;;;7.40;99.90;;;;;;5079060;28;20103;-94
2021/12/10 09:26:02;;;;;;;8.98;4.15;;;7.90;99.90;;;;;;5076866;28;20052;-94
2021/12/10 09:28:28;;;;;;;9.03;3.97;;;7.70;99.90;;;;;;5075376;28;20383;-93
2021/12/10 09:30:58;;;;;;;11.15;4.35;;;8.00;99.90;;;;;;5056881;28;20406;-94
2021/12/10 09:33:28;;;;;;;14.40;4.53;;;8.00;99.90;;;;;;5074255;28;20040;-92
2021/12/10 09:35:54;;;;;;;7.35;4.10;;;8.20;99.90;;;;;;5057724;28;20156;-93
2021/12/10 09:38:21;;;;;;;9.10;3.97;;;8.60;99.90;;;;;;5056207;28;20513;-93
2021/12/10 09:40:52;;;;;;;11.30;4.28;;;8.70;99.90;;;;;;5056342;28;20434;-93
2021/12/10 09:43:19;;;;;;;6.80;4.03;;;9.00;99.90;;;;;;5073278;28;20044;-93
2021/12/10 09:45:45;;;;;;;6.53;4.03;;;9.40;99.90;;;;;;5056495;28;20469;-93
2021/12/10 09:48:14;;;;;;;13.60;4.25;;;9.30;99.90;;;;;;5073347;28;20051;-92
2021/12/10 09:50:54;;;;;;;8.70;3.70;;;9.30;99.90;;;;;;5072818;28;20048;-93
2021/12/10 09:53:20;;;;;;;5.97;3.53;;;9.40;99.90;;;;;;5072776;28;20110;-92
2021/12/10 09:55:47;;;;;;;6.85;3.75;;;9.70;99.90;;;;;;5056424;28;20049;-92
2021/12/10 09:58:15;;;;;;;7.78;3.63;;;9.50;99.90;;;;;;5058845;28;20218;-92
2021/12/10 10:00:55;;;;;;;6.72;3.90;;;9.40;99.90;;;;;;5076573;28;20044;-94
2021/12/10 10:03:26;;;;;;;6.57;3.60;;;9.50;99.90;;;;;;5077035;28;20040;-94
2021/12/10 10:05:52;;;;;;;7.93;3.67;;;9.70;99.90;;;;;;5060225;28;20049;-93
2021/12/10 10:08:22;;;;;;;8.43;3.30;;;9.80;99.90;;;;;;5076407;28;20060;-93
2021/12/10 10:10:50;;;;;;;8.48;3.58;;;10.30;99.90;;;;;;5076914;28;20063;-93
2021/12/10 10:13:31;;;;;;;8.05;3.10;;;10.80;99.90;;;;;;5076802;28;20041;-92
2021/12/10 10:15:59;;;;;;;6.57;3.00;;;11.00;99.90;;;;;;5060586;28;20049;-93
2021/12/10 10:18:27;;;;;;;5.00;3.08;;;10.80;99.90;;;;;;5076705;28;20135;-93
2021/12/10 10:20:58;;;;;;;7.05;3.60;;;10.60;99.90;;;;;;5076564;28;20044;-93
2021/12/10 10:23:25;;;;;;;;;;;11.20;99.90;;;;;;5061053;28;20509;-93
2021/12/10 10:25:55;;;;;;;5.00;3.03;;;11.10;99.90;;;;;;5076640;28;19926;-93
2021/12/10 10:28:21;;;;;;;6.75;3.30;;;11.20;99.90;;;;;;5076898;28;20052;-93
2021/12/10 10:31:00;;;;;;;4.40;2.95;;;11.40;99.90;;;;;;5076614;28;20048;-93
2021/12/10 10:33:29;;;;;;;6.85;3.30;;;11.60;99.90;;;;;;5059716;28;20089;-93
2021/12/10 10:35:58;;;;;;;9.77;3.10;;;11.90;99.90;;;;;;5060176;28;20056;-93
2021/12/10 10:38:25;;;;;;;7.93;3.47;;;12.00;99.90;;;;;;5059702;28;20494;-93
2021/12/10 10:40:55;;;;;;;8.90;3.28;;;12.10;99.90;;;;;;5076226;28;20123;-93
2021/12/10 10:43:24;;;;;;;4.72;3.10;;;11.90;99.90;;;;;;5059348;28;20056;-93
2021/12/10 10:45:50;;;;;;;7.90;3.30;;;11.60;99.90;;;;;;5059387;28;20052;-93
2021/12/10 10:48:17;;;;;;;7.70;3.53;;;11.30;99.90;;;;;;5059779;28;20051;-92
2021/12/10 10:50:54;;;;;;;11.00;3.85;;;11.10;99.90;;;;;;5059570;28;20094;-92
2021/12/10 10:53:23;;;;;;;7.57;4.13;;;11.00;99.90;;;;;;5059676;28;20071;-93
2021/12/10 10:55:59;;;;;;;9.10;3.88;;;11.00;99.90;;;;;;5080847;28;20047;-93
2021/12/10 10:58:30;;;;;;;5.55;3.45;;;11.40;99.90;;;;;;5082922;28;20044;-93
2021/12/10 11:01:08;;;;;;;6.85;3.55;;;11.20;99.90;;;;;;5081857;28;20079;-92
2021/12/10 11:03:40;;;;;;;7.18;3.60;;;11.40;99.90;;;;;;5086793;28;20406;-93
2021/12/10 11:06:25;;;;;;;5.78;3.50;;;11.20;99.90;;;;;;5085237;28;20490;-93
2021/12/10 11:08:54;;;;;;;6.85;3.47;;;11.20;99.90;;;;;;5083538;28;20375;-94
2021/12/10 11:11:28;;;;;;;8.05;2.90;;;11.00;99.90;;;;;;5088241;28;20052;-93
2021/12/10 11:14:22;;;;;;;8.73;3.13;;;11.00;99.90;;;;;;5083914;28;20131;-92
2021/12/10 11:16:52;;;;;;;7.03;3.45;;;11.70;99.90;;;;;;5115477;28;20087;-93
2021/12/10 11:19:28;;;;;;;8.83;3.70;;;10.80;99.90;;;;;;5081977;28;20056;-94
2021/12/10 11:22:00;;;;;;;6.18;2.90;;;10.30;99.90;;;;;;5080484;28;20048;-93
2021/12/10 11:24:38;;;;;;;7.53;3.40;;;9.70;99.90;;;;;;5075776;28;20052;-92
2021/12/10 11:27:13;;;;;;;7.15;3.22;;;9.30;99.90;;;;;;5075736;28;20048;-93
2021/12/10 11:29:38;;;;;;;9.73;3.20;;;9.30;99.90;;;;;;5075385;28;20044;-93
2021/12/10 11:32:18;;;;;;;6.57;2.95;;;9.50;99.90;;;;;;5075303;28;20067;-93
2021/12/10 11:34:49;;;;;;;5.97;2.65;;;9.60;99.90;;;;;;5075528;28;20036;-93
2021/12/10 11:37:36;;;;;;;7.18;3.17;;;9.50;99.90;;;;;;5075516;28;20056;-93
2021/12/10 11:40:04;;;;;;;7.38;2.97;;;9.10;99.90;;;;;;5058459;28;20044;-93
2021/12/10 11:42:40;;;;;;;5.25;2.75;;;8.90;99.90;;;;;;5075028;28;20492;-93
2021/12/10 11:45:30;;;;;;;5.97;2.38;;;8.80;99.90;;;;;;5058446;28;20048;-92
2021/12/10 11:48:06;;;;;;;7.25;2.50;;;8.60;99.90;;;;;;5058701;28;20079;-93
2021/12/10 11:50:33;;;;;;;6.50;2.90;;;8.50;99.90;;;;;;5074786;28;20040;-92
2021/12/10 11:53:18;;;;;;;6.88;2.85;;;8.50;99.90;;;;;;5074793;28;20059;-94
2021/12/10 11:55:59;;;;;;;7.85;3.22;;;7.90;99.90;;;;;;5058469;28;20257;-93
2021/12/10 11:58:25;;;;;;;5.53;2.83;;;8.10;99.90;;;;;;5058380;28;20040;-92
2021/12/10 12:00:52;;;;;;;5.40;2.88;;;7.70;99.90;;;;;;5058190;28;20063;-92
2021/12/10 12:03:20;;;;;;;8.57;2.90;;;7.60;99.90;;;;;;5058227;28;20048;-92
2021/12/10 12:05:48;;;;;;;9.40;3.03;;;7.60;99.90;;;;;;5075371;28;20048;-93
2021/12/10 12:08:17;;;;;;;9.02;3.50;;;7.60;99.90;;;;;;5074973;28;20049;-93
2021/12/10 12:10:50;;;;;;;8.32;2.92;;;7.50;99.90;;;;;;5074664;28;20044;-93
2021/12/10 12:15:56;;;;;;;10.48;2.92;;;7.20;99.90;;;;;;5074708;28;20056;-94
2021/12/10 12:18:31;;;;;;;7.35;2.67;;;7.10;99.90;;;;;;5057897;28;20151;-92
2021/12/10 12:26:51;;;;;;;10.57;2.75;;;6.70;99.90;;;;;;5074500;28;20136;-94
2021/12/10 12:29:18;;;;;;;7.13;2.47;;;6.70;99.90;;;;;;5074607;28;20440;-94
2021/12/10 12:31:54;;;;;;;5.10;2.58;;;7.00;99.90;;;;;;5108241;28;20052;-93
2021/12/10 12:34:28;;;;;;;9.63;3.17;;;6.90;99.90;;;;;;5074364;28;20130;-94
2021/12/10 12:37:07;;;;;;;7.85;3.30;;;7.20;99.90;;;;;;5057632;28;20055;-93
2021/12/10 12:39:39;;;;;;;8.70;2.88;;;7.40;99.90;;;;;;5074282;28;20049;-93
2021/12/10 12:42:17;;;;;;;6.18;2.60;;;7.60;99.90;;;;;;5057125;28;20109;-93
2021/12/10 12:44:43;;;;;;;6.45;2.63;;;7.70;99.90;;;;;;5073826;28;20047;-93
2021/12/10 12:47:17;;;;;;;7.13;2.63;;;8.10;99.90;;;;;;5074072;28;20459;-94
2021/12/10 12:49:48;;;;;;;9.73;2.63;;;7.70;99.90;;;;;;5073631;28;20045;-94
2021/12/10 12:52:21;;;;;;;8.68;2.72;;;7.60;99.90;;;;;;5073645;28;20074;-94
2021/12/10 12:55:24;;;;;;;6.75;2.47;;;7.50;99.90;;;;;;5073932;28;20044;-94
2021/12/10 12:58:00;;;;;;;8.02;2.72;;;7.40;99.90;;;;;;5057300;28;20048;-94
2021/12/10 13:00:44;;;;;;;6.00;2.85;;;7.30;99.90;;;;;;5056809;28;20047;-94
2021/12/10 13:03:15;;;;;;;7.20;2.38;;;7.60;99.90;;;;;;5057372;28;20391;-93
2021/12/10 13:05:43;;;;;;;8.43;2.38;;;8.10;99.90;;;;;;5056818;28;20139;-93
2021/12/10 13:08:17;;;;;;;6.10;2.40;;;8.20;99.90;;;;;;5057694;28;20106;-93
2021/12/10 13:10:51;;;;;;;5.82;2.70;;;8.10;99.90;;;;;;5073911;28;20139;-94
2021/12/10 13:13:32;;;;;;;5.43;2.40;;;8.20;99.90;;;;;;5057202;28;20044;-94
2021/12/10 13:15:57;;;;;;;9.52;2.17;;;8.20;99.90;;;;;;5073681;28;20441;-94
2021/12/10 13:18:24;;;;;;;9.07;2.80;;;8.10;99.90;;;;;;5073653;28;20043;-93
2021/12/10 13:20:53;;;;;;;7.95;2.53;;;7.90;99.90;;;;;;5056454;28;20045;-93
2021/12/10 13:23:25;;;;;;;8.35;2.95;;;7.80;99.90;;;;;;5056727;28;20074;-91
2021/12/10 13:25:53;;;;;;;6.95;2.30;;;7.70;99.90;;;;;;5056956;28;20454;-90
2021/12/10 13:28:19;;;;;;;5.95;2.13;;;7.50;99.90;;;;;;5107500;28;20091;-91
2021/12/10 13:30:58;;;;;;;7.68;2.72;;;7.40;99.90;;;;;;5057085;28;20474;-91
2021/12/10 13:33:29;;;;;;;7.68;2.40;;;7.30;99.90;;;;;;5056402;28;20094;-92
2021/12/10 13:35:57;;;;;;;10.25;3.10;;;7.10;99.90;;;;;;5073078;28;20048;-92
2021/12/10 13:38:23;;;;;;;7.60;2.17;;;7.10;99.90;;;;;;5073713;28;20044;-92
2021/12/10 13:40:52;;;;;;;9.45;2.90;;;7.40;99.90;;;;;;5073610;28;20564;-91
2021/12/10 13:43:19;;;;;;;8.05;2.75;;;7.30;99.90;;;;;;5056754;28;20051;-91